createdAt,value
2022-12-25T00:02:25.589Z,48.89
2022-12-25T00:04:52.602Z,48.60
2022-12-25T00:07:19.463Z,48.64
2022-12-25T00:09:46.276Z,48.63
2022-12-25T00:12:13.231Z,48.75
2022-12-25T00:14:40.087Z,48.88
2022-12-25T00:17:06.915Z,48.36
2022-12-25T00:19:33.828Z,48.72
2022-12-25T00:22:00.667Z,48.51
2022-12-25T00:24:27.544Z,49.17
2022-12-25T00:26:54.409Z,48.76
2022-12-25T00:29:22.073Z,48.92
2022-12-25T00:31:48.980Z,48.90
2022-12-25T00:34:15.944Z,48.60
2022-12-25T00:36:42.781Z,49.12
2022-12-25T00:39:09.842Z,48.50
2022-12-25T00:41:55.363Z,49.43
2022-12-25T00:44:22.204Z,49.88
2022-12-25T00:46:49.290Z,49.65
2022-12-25T00:49:16.210Z,49.02
2022-12-25T00:51:43.133Z,49.18
2022-12-25T00:54:09.971Z,48.93
2022-12-25T00:56:36.911Z,49.04
2022-12-25T00:59:03.786Z,49.08
2022-12-25T01:01:30.891Z,49.03
2022-12-25T01:03:57.990Z,48.70
2022-12-25T01:06:24.841Z,49.00
2022-12-25T01:09:10.638Z,49.21
2022-12-25T01:11:37.524Z,49.53
2022-12-25T01:14:04.454Z,49.58
2022-12-25T01:16:31.408Z,49.42
2022-12-25T01:18:58.345Z,49.98
2022-12-25T01:21:25.224Z,49.98
2022-12-25T01:23:52.546Z,49.68
2022-12-25T01:26:20.330Z,49.96
2022-12-25T01:28:47.221Z,49.84
2022-12-25T01:31:15.217Z,50.27
2022-12-25T01:33:42.428Z,50.16
2022-12-25T01:36:24.431Z,49.81
2022-12-25T01:38:51.935Z,49.67
2022-12-25T01:41:20.044Z,49.64
2022-12-25T01:43:59.583Z,50.04
2022-12-25T01:46:26.541Z,50.05
2022-12-25T01:48:54.142Z,49.94
2022-12-25T01:51:30.836Z,49.99
2022-12-25T01:53:58.523Z,49.62
2022-12-25T01:56:25.424Z,49.88
2022-12-25T01:58:52.267Z,49.68
2022-12-25T02:01:19.309Z,50.00
2022-12-25T02:03:46.228Z,49.83
2022-12-25T02:06:13.085Z,49.36
2022-12-25T02:08:40.544Z,49.46
2022-12-25T02:11:28.959Z,49.84
2022-12-25T02:13:55.992Z,49.85
2022-12-25T02:16:23.111Z,49.90
2022-12-25T02:18:52.743Z,49.65
2022-12-25T02:21:52.230Z,49.65
2022-12-25T02:24:22.086Z,49.69
2022-12-25T02:27:40.705Z,49.57
2022-12-25T02:30:08.872Z,49.57
2022-12-25T02:33:25.761Z,49.66
2022-12-25T02:35:53.447Z,49.65
2022-12-25T02:38:33.148Z,49.91
2022-12-25T02:41:02.474Z,49.72
2022-12-25T02:43:57.597Z,49.73
2022-12-25T02:46:43.117Z,50.05
2022-12-25T02:49:35.715Z,49.69
2022-12-25T02:52:24.089Z,49.72
2022-12-25T02:55:12.995Z,49.83
2022-12-25T02:58:04.396Z,49.74
2022-12-25T03:00:50.864Z,49.63
2022-12-25T03:03:36.142Z,49.85
2022-12-25T03:06:21.635Z,50.11
2022-12-25T03:08:50.431Z,49.71
2022-12-25T03:11:32.509Z,49.57
2022-12-25T03:14:20.798Z,50.06
2022-12-25T03:16:53.730Z,49.93
2022-12-25T03:19:40.740Z,49.83
2022-12-25T03:22:28.742Z,49.89
2022-12-25T03:25:14.112Z,49.63
2022-12-25T03:27:42.492Z,50.04
2022-12-25T03:30:29.151Z,49.87
2022-12-25T03:33:36.810Z,50.04
2022-12-25T03:36:10.123Z,49.94
2022-12-25T03:38:51.967Z,49.99
2022-12-25T03:41:40.215Z,50.05
2022-12-25T03:44:39.705Z,49.80
2022-12-25T03:47:39.108Z,49.99
2022-12-25T03:50:49.241Z,50.06
2022-12-25T03:53:37.727Z,49.92
2022-12-25T03:56:24.205Z,50.07
2022-12-25T03:59:11.154Z,49.88
2022-12-25T04:01:56.781Z,49.93
2022-12-25T04:04:42.550Z,49.87
2022-12-25T04:07:28.094Z,49.96
2022-12-25T04:10:13.453Z,49.73
2022-12-25T04:12:58.900Z,50.14
2022-12-25T04:15:44.299Z,49.84
2022-12-25T04:18:30.186Z,50.06
2022-12-25T04:21:15.700Z,49.84
2022-12-25T04:24:01.142Z,49.70
2022-12-25T04:26:46.551Z,49.78
2022-12-25T04:29:31.820Z,49.89
2022-12-25T04:32:16.959Z,49.48
2022-12-25T04:35:02.832Z,49.53
2022-12-25T04:37:29.775Z,49.83
2022-12-25T04:39:56.633Z,49.70
2022-12-25T04:42:23.466Z,49.98
2022-12-25T04:44:50.321Z,49.88
2022-12-25T04:47:17.155Z,49.08
2022-12-25T04:49:43.982Z,49.26
2022-12-25T04:52:10.851Z,48.73
2022-12-25T04:54:38.273Z,48.88
2022-12-25T04:57:05.308Z,48.49
2022-12-25T04:59:32.178Z,48.51
2022-12-25T05:01:59.152Z,48.63
2022-12-25T05:04:26.042Z,48.96
2022-12-25T05:06:52.970Z,48.95
2022-12-25T05:09:19.802Z,48.83
2022-12-25T05:11:46.656Z,48.88
2022-12-25T05:14:13.565Z,48.91
2022-12-25T05:16:40.579Z,48.71
2022-12-25T05:19:07.417Z,48.53
2022-12-25T05:21:34.304Z,48.63
2022-12-25T05:24:01.127Z,48.55
2022-12-25T05:26:27.956Z,48.65
2022-12-25T05:28:55.239Z,48.43
2022-12-25T05:31:22.188Z,48.69
2022-12-25T05:33:50.254Z,48.88
2022-12-25T05:36:17.136Z,48.70
2022-12-25T05:38:43.974Z,48.83
2022-12-25T05:41:10.931Z,48.47
2022-12-25T05:43:37.806Z,48.58
2022-12-25T05:46:06.490Z,48.71
2022-12-25T05:48:34.708Z,48.76
2022-12-25T05:51:09.439Z,48.74
2022-12-25T05:53:36.446Z,48.38
2022-12-25T05:56:04.409Z,48.77
2022-12-25T05:58:32.054Z,48.45
2022-12-25T06:00:58.901Z,48.91
2022-12-25T06:03:25.813Z,48.92
2022-12-25T06:05:52.751Z,48.62
2022-12-25T06:08:19.761Z,48.96
2022-12-25T06:10:46.857Z,48.89
2022-12-25T06:13:13.784Z,49.03
2022-12-25T06:15:41.303Z,48.93
2022-12-25T06:18:08.344Z,48.61
2022-12-25T06:20:35.417Z,48.76
2022-12-25T06:23:02.389Z,48.57
2022-12-25T06:25:29.243Z,48.85
2022-12-25T06:27:56.105Z,48.66
2022-12-25T06:30:22.991Z,48.61
2022-12-25T06:32:49.836Z,48.87
2022-12-25T06:35:16.796Z,48.92
2022-12-25T06:37:43.610Z,49.07
2022-12-25T06:40:10.837Z,49.36
2022-12-25T06:42:37.712Z,49.67
2022-12-25T06:45:04.976Z,49.63
2022-12-25T06:47:31.843Z,49.54
2022-12-25T06:49:58.704Z,49.78
2022-12-25T06:52:25.526Z,49.61
2022-12-25T06:54:52.370Z,49.66
2022-12-25T06:57:19.366Z,49.51
2022-12-25T06:59:49.917Z,49.47
2022-12-25T07:02:22.387Z,49.71
2022-12-25T07:04:49.287Z,49.68
2022-12-25T07:07:16.101Z,49.43
2022-12-25T07:09:43.001Z,49.48
2022-12-25T07:12:19.698Z,49.72
2022-12-25T07:14:49.045Z,49.70
2022-12-25T07:17:16.802Z,49.38
2022-12-25T07:19:45.444Z,49.35
2022-12-25T07:22:13.207Z,49.75
2022-12-25T07:24:40.050Z,49.68
2022-12-25T07:27:06.919Z,49.59
2022-12-25T07:29:34.001Z,49.51
2022-12-25T07:32:00.925Z,49.94
2022-12-25T07:34:27.793Z,49.56
2022-12-25T07:36:54.972Z,49.55
2022-12-25T07:39:22.064Z,49.48
2022-12-25T07:41:48.945Z,49.45
2022-12-25T07:44:16.007Z,49.62
2022-12-25T07:46:43.035Z,49.35
2022-12-25T07:49:11.034Z,49.08
2022-12-25T07:51:37.965Z,49.30
2022-12-25T07:54:04.929Z,49.11
2022-12-25T07:56:31.875Z,49.27
2022-12-25T07:58:58.752Z,49.69
2022-12-25T08:01:26.984Z,49.14
2022-12-25T08:03:54.894Z,49.05
2022-12-25T08:06:22.741Z,49.24
2022-12-25T08:08:49.570Z,49.46
2022-12-25T08:11:16.385Z,49.93
2022-12-25T08:13:43.255Z,50.02
2022-12-25T08:16:10.510Z,49.70
2022-12-25T08:18:38.146Z,49.58
2022-12-25T08:21:09.561Z,49.89
2022-12-25T08:23:38.229Z,49.55
2022-12-25T08:26:05.931Z,49.44
2022-12-25T08:28:33.240Z,49.51
2022-12-25T08:31:00.149Z,49.49
2022-12-25T08:33:27.017Z,49.16
2022-12-25T08:35:53.981Z,49.07
2022-12-25T08:38:20.875Z,49.24
2022-12-25T08:40:47.704Z,49.84
2022-12-25T08:43:14.552Z,49.97
2022-12-25T08:45:41.398Z,49.75
2022-12-25T08:48:08.255Z,49.78
2022-12-25T08:50:35.133Z,49.87
2022-12-25T08:53:02.137Z,49.90
2022-12-25T08:55:29.473Z,50.10
2022-12-25T08:57:56.425Z,50.17
2022-12-25T09:00:23.279Z,50.11
2022-12-25T09:02:50.521Z,50.48
2022-12-25T09:05:17.455Z,50.30
2022-12-25T09:07:44.553Z,50.45
2022-12-25T09:10:11.604Z,50.35
2022-12-25T09:12:38.491Z,50.40
2022-12-25T09:15:05.809Z,50.59
2022-12-25T09:17:33.067Z,50.61
2022-12-25T09:20:00.057Z,50.80
2022-12-25T09:22:26.932Z,50.85
2022-12-25T09:24:53.850Z,51.00
2022-12-25T09:27:20.762Z,51.03
2022-12-25T09:29:47.657Z,51.06
2022-12-25T09:32:14.505Z,51.16
2022-12-25T09:34:41.392Z,51.15
2022-12-25T09:37:08.270Z,51.48
2022-12-25T09:39:38.191Z,51.01
2022-12-25T09:42:13.402Z,51.42
2022-12-25T09:44:45.334Z,51.29
2022-12-25T09:47:18.434Z,51.09
2022-12-25T09:49:50.405Z,51.41
2022-12-25T09:52:19.922Z,51.46
2022-12-25T09:55:08.272Z,51.54
2022-12-25T09:57:35.231Z,51.60
2022-12-25T10:00:02.136Z,51.46
2022-12-25T10:02:50.397Z,51.50
2022-12-25T10:05:40.171Z,51.55
2022-12-25T10:08:13.041Z,51.58
2022-12-25T10:10:52.805Z,51.65
2022-12-25T10:13:47.058Z,51.59
2022-12-25T10:16:44.511Z,51.81
2022-12-25T10:19:41.231Z,52.04
2022-12-25T10:22:14.712Z,52.02
2022-12-25T10:24:48.138Z,51.78
2022-12-25T10:27:18.997Z,51.89
2022-12-25T10:29:47.381Z,51.62
2022-12-25T10:32:14.223Z,51.85
2022-12-25T10:34:41.755Z,51.95
2022-12-25T10:37:10.924Z,52.10
2022-12-25T10:39:42.441Z,52.10
2022-12-25T10:42:24.449Z,52.05
2022-12-25T10:45:04.843Z,51.96
2022-12-25T10:47:33.375Z,52.03
2022-12-25T10:50:00.747Z,52.23
2022-12-25T10:52:28.666Z,51.81
2022-12-25T10:54:55.785Z,52.25
2022-12-25T10:57:24.344Z,52.34
2022-12-25T10:59:57.250Z,52.29
2022-12-25T11:02:44.465Z,52.42
2022-12-25T11:05:14.376Z,51.94
2022-12-25T11:07:55.266Z,51.77
2022-12-25T11:10:28.499Z,51.61
2022-12-25T11:12:55.580Z,51.95
2022-12-25T11:15:34.959Z,51.88
2022-12-25T11:18:02.727Z,52.05
2022-12-25T11:20:29.837Z,51.81
2022-12-25T11:22:56.819Z,51.87
2022-12-25T11:25:27.507Z,51.84
2022-12-25T11:28:02.096Z,51.77
2022-12-25T11:30:29.726Z,51.71
2022-12-25T11:32:57.153Z,51.76
2022-12-25T11:35:25.335Z,51.63
2022-12-25T11:37:52.336Z,51.54
2022-12-25T11:40:33.539Z,51.72
2022-12-25T11:43:08.416Z,51.87
2022-12-25T11:45:40.338Z,51.77
2022-12-25T11:48:24.435Z,51.54
2022-12-25T11:50:55.573Z,51.64
2022-12-25T11:53:25.790Z,51.40
2022-12-25T11:55:55.615Z,51.63
2022-12-25T11:58:29.419Z,51.12
2022-12-25T12:00:57.436Z,51.02
2022-12-25T12:03:38.171Z,50.93
2022-12-25T12:06:18.906Z,50.75
2022-12-25T12:08:47.759Z,50.57
2022-12-25T12:11:37.323Z,50.92
2022-12-25T12:14:20.851Z,51.09
2022-12-25T12:16:47.819Z,51.04
2022-12-25T12:19:28.783Z,51.30
2022-12-25T12:21:56.841Z,50.86
2022-12-25T12:24:23.954Z,50.81
2022-12-25T12:27:05.128Z,50.96
2022-12-25T12:29:40.071Z,50.67
2022-12-25T12:32:20.810Z,50.68
2022-12-25T12:34:50.075Z,50.58
2022-12-25T12:37:35.940Z,50.71
2022-12-25T12:40:03.656Z,50.48
2022-12-25T12:42:36.256Z,50.59
2022-12-25T12:45:15.153Z,50.79
2022-12-25T12:47:46.654Z,50.50
2022-12-25T12:50:40.833Z,50.27
2022-12-25T12:53:22.649Z,50.29
2022-12-25T12:55:50.199Z,50.43
2022-12-25T12:58:33.209Z,49.94
2022-12-25T13:01:09.203Z,50.23
2022-12-25T13:04:13.482Z,50.01
2022-12-25T13:06:51.149Z,50.03
2022-12-25T13:09:33.167Z,49.78
2022-12-25T13:12:00.139Z,49.87
2022-12-25T13:14:27.328Z,49.19
2022-12-25T13:16:54.742Z,49.26
2022-12-25T13:19:24.098Z,49.51
2022-12-25T13:21:58.941Z,49.09
2022-12-25T13:24:29.184Z,48.74
2022-12-25T13:26:56.088Z,48.82
2022-12-25T13:29:36.708Z,48.98
2022-12-25T13:32:05.313Z,48.93
2022-12-25T13:34:39.708Z,49.22
2022-12-25T13:37:27.692Z,48.88
2022-12-25T13:40:01.873Z,49.05
2022-12-25T13:42:30.721Z,49.01
2022-12-25T13:45:28.779Z,48.86
2022-12-25T13:47:56.181Z,49.17
2022-12-25T13:50:33.713Z,48.75
2022-12-25T13:53:14.112Z,48.95
2022-12-25T13:55:40.976Z,48.85
2022-12-25T13:58:07.930Z,48.82
2022-12-25T14:00:37.752Z,48.69
2022-12-25T14:03:05.350Z,48.45
2022-12-25T14:05:41.699Z,48.38
2022-12-25T14:08:23.111Z,48.69
2022-12-25T14:10:51.231Z,48.32
2022-12-25T14:13:18.576Z,48.81
2022-12-25T14:15:45.563Z,48.36
2022-12-25T14:18:19.151Z,48.44
2022-12-25T14:20:59.195Z,48.65
2022-12-25T14:23:26.075Z,48.43
2022-12-25T14:25:53.051Z,48.59
2022-12-25T14:28:23.818Z,48.13
2022-12-25T14:30:50.924Z,47.86
2022-12-25T14:33:19.721Z,47.76
2022-12-25T14:35:46.736Z,47.61
2022-12-25T14:38:32.407Z,47.68
2022-12-25T14:41:24.257Z,48.22
2022-12-25T14:43:53.810Z,47.95
2022-12-25T14:46:28.950Z,48.25
2022-12-25T14:49:05.243Z,48.29
2022-12-25T14:51:33.011Z,47.95
2022-12-25T14:54:01.945Z,48.15
2022-12-25T14:56:29.321Z,48.13
2022-12-25T14:58:57.461Z,48.21
2022-12-25T15:01:35.078Z,48.17
2022-12-25T15:04:28.395Z,48.32
2022-12-25T15:07:07.378Z,48.52
2022-12-25T15:09:36.029Z,48.59
2022-12-25T15:12:03.173Z,48.66
2022-12-25T15:14:31.554Z,48.53
2022-12-25T15:16:59.461Z,48.29
2022-12-25T15:19:34.843Z,48.20
2022-12-25T15:22:03.843Z,48.48
2022-12-25T15:24:30.711Z,48.49
2022-12-25T15:27:00.302Z,48.45
2022-12-25T15:30:00.265Z,48.39
2022-12-25T15:32:19.106Z,48.63
2022-12-25T15:34:47.248Z,48.09
2022-12-25T15:37:14.330Z,48.32
2022-12-25T15:39:41.280Z,48.38
2022-12-25T15:42:16.242Z,48.58
2022-12-25T15:44:43.889Z,48.28
2022-12-25T15:47:11.569Z,48.23
2022-12-25T15:49:38.489Z,48.27
2022-12-25T15:52:06.264Z,48.68
2022-12-25T15:54:33.221Z,48.64
2022-12-25T15:57:02.142Z,48.51
2022-12-25T15:59:29.072Z,48.30
2022-12-25T16:01:57.591Z,48.65
2022-12-25T16:04:25.089Z,48.46
2022-12-25T16:06:52.290Z,48.62
2022-12-25T16:09:20.317Z,48.47
2022-12-25T16:11:47.363Z,48.28
2022-12-25T16:14:14.604Z,48.67
2022-12-25T16:16:41.564Z,48.81
2022-12-25T16:19:08.583Z,48.40
2022-12-25T16:21:39.905Z,48.83
2022-12-25T16:24:06.911Z,48.80
2022-12-25T16:26:34.039Z,48.87
2022-12-25T16:29:06.796Z,48.78
2022-12-25T16:31:34.643Z,48.72
2022-12-25T16:34:01.728Z,49.00
2022-12-25T16:36:28.586Z,49.13
2022-12-25T16:38:55.514Z,49.08
2022-12-25T16:41:22.491Z,48.94
2022-12-25T16:43:49.408Z,49.29
2022-12-25T16:46:17.828Z,48.88
2022-12-25T16:48:44.911Z,49.15
2022-12-25T16:51:16.208Z,49.06
2022-12-25T16:53:43.488Z,49.15
2022-12-25T16:56:14.942Z,48.88
2022-12-25T16:58:46.656Z,48.90
2022-12-25T17:01:15.244Z,49.03
2022-12-25T17:03:42.252Z,48.62
2022-12-25T17:06:15.704Z,48.86
2022-12-25T17:08:42.874Z,48.74
2022-12-25T17:11:10.148Z,48.91
2022-12-25T17:13:37.186Z,49.04
2022-12-25T17:16:17.770Z,49.03
2022-12-25T17:18:44.773Z,48.69
2022-12-25T17:21:11.658Z,48.72
2022-12-25T17:23:38.634Z,49.06
2022-12-25T17:26:05.723Z,49.21
2022-12-25T17:28:34.115Z,49.33
2022-12-25T17:31:05.572Z,48.89
2022-12-25T17:33:32.440Z,49.21
2022-12-25T17:36:07.154Z,49.25
2022-12-25T17:38:34.031Z,48.96
2022-12-25T17:41:02.257Z,49.00
2022-12-25T17:43:29.327Z,49.38
2022-12-25T17:45:56.169Z,48.97
2022-12-25T17:48:23.042Z,49.37
2022-12-25T17:50:49.919Z,49.25
2022-12-25T17:53:16.823Z,49.37
2022-12-25T17:55:44.399Z,49.09
2022-12-25T17:58:11.289Z,49.27
2022-12-25T18:00:38.143Z,49.06
2022-12-25T18:03:11.237Z,49.34
2022-12-25T18:05:38.860Z,49.12
2022-12-25T18:08:05.733Z,49.31
2022-12-25T18:10:37.875Z,49.54
2022-12-25T18:13:04.920Z,49.52
2022-12-25T18:15:31.770Z,49.40
2022-12-25T18:17:58.738Z,49.46
2022-12-25T18:20:25.659Z,49.82
2022-12-25T18:22:52.493Z,49.64
2022-12-25T18:25:19.319Z,49.56
2022-12-25T18:27:46.222Z,49.47
2022-12-25T18:30:13.293Z,49.60
2022-12-25T18:32:40.138Z,49.63
2022-12-25T18:35:08.652Z,49.91
2022-12-25T18:37:40.054Z,49.71
2022-12-25T18:40:08.024Z,49.64
2022-12-25T18:42:40.538Z,49.60
2022-12-25T18:45:08.849Z,48.92
2022-12-25T18:47:35.834Z,49.28
2022-12-25T18:50:02.842Z,48.82
2022-12-25T18:52:49.868Z,49.42
2022-12-25T18:55:16.660Z,49.72
2022-12-25T18:57:43.515Z,49.64
2022-12-25T19:00:10.751Z,50.06
2022-12-25T19:02:37.755Z,50.07
2022-12-25T19:05:05.721Z,49.73
2022-12-25T19:07:32.563Z,49.75
2022-12-25T19:09:59.479Z,49.71
2022-12-25T19:12:26.308Z,50.07
2022-12-25T19:14:53.303Z,50.01
2022-12-25T19:17:20.169Z,49.90
2022-12-25T19:19:47.222Z,50.18
2022-12-25T19:22:14.148Z,49.67
2022-12-25T19:24:41.042Z,49.75
2022-12-25T19:27:07.901Z,49.98
2022-12-25T19:29:34.738Z,49.69
2022-12-25T19:32:01.739Z,49.57
2022-12-25T19:34:28.656Z,49.62
2022-12-25T19:36:55.501Z,50.10
2022-12-25T19:39:22.529Z,49.72
2022-12-25T19:41:49.396Z,49.86
2022-12-25T19:44:16.253Z,49.79
2022-12-25T19:46:43.223Z,50.16
2022-12-25T19:49:12.887Z,49.86
2022-12-25T19:51:42.227Z,49.77
2022-12-25T19:54:14.770Z,49.99
2022-12-25T19:56:41.721Z,49.73
2022-12-25T19:59:08.597Z,49.71
2022-12-25T20:01:35.703Z,49.81
2022-12-25T20:04:02.568Z,49.64
2022-12-25T20:06:31.169Z,49.59
2022-12-25T20:09:02.805Z,49.88
2022-12-25T20:11:30.325Z,49.64
2022-12-25T20:13:57.221Z,49.90
2022-12-25T20:16:24.996Z,49.73
2022-12-25T20:18:52.040Z,49.93
2022-12-25T20:21:20.667Z,49.73
2022-12-25T20:23:48.672Z,50.11
2022-12-25T20:26:16.328Z,49.78
2022-12-25T20:28:43.541Z,49.65
2022-12-25T20:31:21.307Z,49.91
2022-12-25T20:33:49.529Z,50.31
2022-12-25T20:36:17.402Z,50.24
2022-12-25T20:38:44.415Z,49.74
2022-12-25T20:41:29.533Z,50.10
2022-12-25T20:43:56.923Z,49.98
2022-12-25T20:46:24.762Z,50.17
2022-12-25T20:48:52.871Z,49.94
2022-12-25T20:51:24.158Z,50.26
2022-12-25T20:53:51.240Z,50.27
2022-12-25T20:56:19.456Z,50.00
2022-12-25T20:58:46.417Z,50.19
2022-12-25T21:01:15.683Z,50.21
2022-12-25T21:03:42.716Z,50.25
2022-12-25T21:06:11.253Z,50.01
2022-12-25T21:08:38.425Z,50.06
2022-12-25T21:11:05.554Z,50.15
2022-12-25T21:13:36.106Z,49.82
2022-12-25T21:16:07.329Z,50.19
2022-12-25T21:18:34.402Z,49.98
2022-12-25T21:21:05.561Z,50.01
2022-12-25T21:23:36.300Z,50.14
2022-12-25T21:26:21.670Z,49.82
2022-12-25T21:28:49.122Z,49.82
2022-12-25T21:31:16.143Z,50.00
2022-12-25T21:33:52.387Z,50.14
2022-12-25T21:36:29.619Z,49.99
2022-12-25T21:39:03.657Z,50.13
2022-12-25T21:41:30.807Z,50.25
2022-12-25T21:43:57.788Z,50.19
2022-12-25T21:46:25.004Z,49.80
2022-12-25T21:48:52.054Z,50.16
2022-12-25T21:51:42.578Z,49.73
2022-12-25T21:54:09.661Z,49.80
2022-12-25T21:56:43.396Z,49.97
2022-12-25T21:59:13.644Z,49.69
2022-12-25T22:01:40.597Z,49.91
2022-12-25T22:04:09.539Z,50.26
2022-12-25T22:06:55.055Z,49.86
2022-12-25T22:09:22.095Z,50.02
2022-12-25T22:12:07.600Z,50.15
2022-12-25T22:14:56.256Z,49.79
2022-12-25T22:17:46.527Z,50.24
2022-12-25T22:20:36.060Z,50.05
2022-12-25T22:23:03.155Z,50.41
2022-12-25T22:25:30.180Z,50.45
2022-12-25T22:27:57.233Z,50.51
2022-12-25T22:30:28.266Z,50.46
2022-12-25T22:32:55.173Z,50.35
2022-12-25T22:35:22.227Z,50.54
2022-12-25T22:37:49.886Z,50.47
2022-12-25T22:40:17.555Z,50.24
2022-12-25T22:42:44.487Z,50.20
2022-12-25T22:45:11.719Z,50.48
2022-12-25T22:47:38.590Z,50.54
2022-12-25T22:50:05.940Z,50.52
2022-12-25T22:52:32.853Z,50.32
2022-12-25T22:54:59.769Z,50.76
2022-12-25T22:57:26.672Z,50.41
2022-12-25T22:59:53.599Z,50.42
2022-12-25T23:02:20.830Z,50.94
2022-12-25T23:04:48.465Z,50.70
2022-12-25T23:07:15.767Z,50.41
2022-12-25T23:09:43.296Z,50.53
2022-12-25T23:12:33.327Z,50.57
2022-12-25T23:15:00.303Z,50.52
2022-12-25T23:17:45.841Z,50.69
2022-12-25T23:20:32.421Z,50.63
2022-12-25T23:23:17.848Z,50.35
2022-12-25T23:26:03.552Z,50.21
2022-12-25T23:28:48.985Z,50.22
2022-12-25T23:31:15.972Z,50.31
2022-12-25T23:33:42.834Z,50.14
2022-12-25T23:36:09.809Z,50.33
2022-12-25T23:38:36.643Z,50.52
2022-12-25T23:41:03.507Z,50.24
2022-12-25T23:43:30.511Z,50.39
2022-12-25T23:45:57.354Z,50.19
2022-12-25T23:48:24.229Z,50.00
2022-12-25T23:50:51.172Z,50.08
2022-12-25T23:53:17.994Z,50.33
2022-12-25T23:55:48.675Z,50.26
2022-12-25T23:58:18.541Z,50.07
